Red Bluff, CA (96080)

9:17 PM PDT on August 29, 2014 (GMT -0700)
Red Bluff Municipal | Change Station
CLOSE
Current Station
Airport
Location: Red Bluff,
Elevation: 351 ft
Nearby Weather Stations

Elev 351 ft 40.15 °N, 122.25 °W | Updated 23 minutes ago

Clear
Clear
79 °F
Feels Like 79 °F
N
7
Wind Variable Wind from South

Today
High -- | Low -- °F
--% Chance of Precip.
Yesterday
High -- | Low -- °F
Precip. -- in
6:33 AM 7:45 PM
Waxing Crescent, 19% visible
Pressure 29.81 in
Visibility 10.0 miles
Clouds Clear
Dew Point 57 °F
Humidity 47%
Rainfall 0.00 in
Snow Depth Not available.
UV 0 out of 12
Pollen 8.80 out of 12
Air Quality Not available.
Flu Activity Not available.
METAR KRBL 300354Z AUTO 19006KT 10SM CLR 26/14 A2982 RMK AO2 SLP092 T02610139

More Conditions Fewer Conditions

Pressure 29.81 in
Visibility 10.0 miles
Clouds Clear
Dew Point 57 °F
Humidity 47%
Rainfall 0.00 in
Snow Depth Not available.
UV 0 out of 12
Pollen 8.80 out of 12
Air Quality Not available.
Flu Activity Not available.
METAR KRBL 300354Z AUTO 19006KT 10SM CLR 26/14 A2982 RMK AO2 SLP092 T02610139

More Conditions Fewer Conditions

10-Day Weather Forecast

Almanac

Astronomy

Aug. 29, 2014 Rise Set
Actual Time 6:33 AM PDT 7:45 PM PDT
Civil Twilight 6:05 AM PDT 8:13 PM PDT
Nautical Twilight 5:32 AM PDT 8:46 PM PDT
Astronomical Twilight 4:57 AM PDT 9:21 PM PDT
Moon 10:28 AM PDT (8/29) 9:45 PM PDT (8/29)
Length of Visible Light 14h 07m
Length of Day
13h 11m
Tomorrow will be 2m 31s shorter.
Waxing Crescent, 19% of the Moon is Illuminated
Aug 30
Waxing Crescent
Sep 2
First Quarter
Sep 8
Full
Sep 15
Last Quarter
Sep 24
New

Today's Extremes

State Highs State Lows

Community

WunderPhotos

Upload Photos

1,748,448 photos uploaded!

Nearby

Snow Depth

Station Depth Elevation
Adin Mountain 0 in 6200 ft
CSS Lab 2 in 6900 ft
Cedar Pass 0 in 7100 ft
Echo Peak 0 in 7800 ft
Hagan's Meadow 0 in 8000 ft

Earthquake Activity

City Distance Mag. Time & Date
The Geysers, California 98 miles 2.7 2:53 PM PDT
2014-08-29
Napa, California 133 miles 2.6 11:57 AM PDT
2014-08-27
The Geysers, California 99 miles 2.6 7:42 AM PDT
2014-08-27
Minimum magnitude displayed is 2.5.

Coastal Water Temperatures

Place Temperature
No Stations Reporting

Nearby Weather Stations